createdAt,value
2022-12-01T00:00:25.128Z,5.80
2022-12-01T00:02:29.446Z,5.80
2022-12-01T00:04:31.963Z,5.20
2022-12-01T00:06:34.380Z,5.80
2022-12-01T00:08:39.359Z,6.80
2022-12-01T00:10:41.783Z,5.80
2022-12-01T00:12:46.578Z,5.80
2022-12-01T00:14:55.014Z,5.80
2022-12-01T00:16:57.452Z,6.60
2022-12-01T00:18:59.933Z,5.80
2022-12-01T00:21:02.205Z,5.80
2022-12-01T00:23:04.521Z,5.80
2022-12-01T00:25:09.707Z,5.80
2022-12-01T00:27:11.940Z,6.00
2022-12-01T00:29:14.232Z,4.90
2022-12-01T00:31:16.629Z,5.80
2022-12-01T00:33:18.919Z,5.70
2022-12-01T00:35:21.276Z,5.80
2022-12-01T00:37:23.716Z,5.80
2022-12-01T00:39:26.102Z,6.30
2022-12-01T00:41:31.115Z,5.70
2022-12-01T00:43:33.466Z,5.70
2022-12-01T00:45:36.706Z,5.70
2022-12-01T00:47:42.499Z,5.70
2022-12-01T00:49:48.113Z,5.70
2022-12-01T00:51:50.775Z,5.80
2022-12-01T00:53:53.146Z,5.70
2022-12-01T00:55:55.547Z,5.80
2022-12-01T00:58:00.470Z,5.80
2022-12-01T01:00:02.955Z,5.80
2022-12-01T01:02:06.226Z,5.80
2022-12-01T01:04:08.664Z,5.80
2022-12-01T01:06:12.580Z,5.70
2022-12-01T01:08:15.687Z,5.80
2022-12-01T01:10:18.180Z,5.80
2022-12-01T01:12:20.746Z,5.70
2022-12-01T01:14:25.778Z,5.70
2022-12-01T01:16:28.877Z,5.80
2022-12-01T01:18:32.534Z,5.80
2022-12-01T01:20:34.940Z,5.80
2022-12-01T01:22:37.227Z,5.80
2022-12-01T01:24:39.670Z,5.80
2022-12-01T01:26:42.079Z,5.80
2022-12-01T01:28:45.435Z,5.70
2022-12-01T01:30:50.570Z,5.70
2022-12-01T01:32:53.005Z,5.70
2022-12-01T01:34:55.419Z,5.70
2022-12-01T01:36:57.714Z,5.70
2022-12-01T01:39:01.278Z,5.80
2022-12-01T01:41:04.223Z,5.70
2022-12-01T01:43:14.233Z,5.70
2022-12-01T01:45:22.225Z,5.70
2022-12-01T01:47:32.344Z,5.70
2022-12-01T01:49:34.827Z,5.80
2022-12-01T01:51:40.865Z,5.70
2022-12-01T01:53:45.431Z,5.80
2022-12-01T01:55:47.931Z,5.70
2022-12-01T01:57:50.738Z,5.80
2022-12-01T01:59:58.170Z,5.80
2022-12-01T02:02:06.723Z,5.80
2022-12-01T02:04:12.894Z,5.80
2022-12-01T02:06:15.752Z,5.70
2022-12-01T02:08:18.151Z,6.40
2022-12-01T02:10:24.113Z,5.80
2022-12-01T02:12:46.994Z,5.70
2022-12-01T02:15:09.007Z,6.50
2022-12-01T02:17:21.459Z,5.80
2022-12-01T02:19:42.893Z,5.70
2022-12-01T02:22:00.246Z,5.70
2022-12-01T02:24:47.588Z,5.80
2022-12-01T02:26:58.856Z,5.80
2022-12-01T02:29:21.896Z,5.70
2022-12-01T02:31:38.907Z,5.70
2022-12-01T02:33:51.459Z,5.80
2022-12-01T02:36:01.919Z,5.70
2022-12-01T02:38:13.117Z,5.70
2022-12-01T02:40:24.363Z,5.70
2022-12-01T02:42:52.438Z,5.70
2022-12-01T02:44:56.573Z,5.70
2022-12-01T02:47:04.974Z,5.70
2022-12-01T02:49:14.114Z,5.70
2022-12-01T02:51:20.030Z,5.70
2022-12-01T02:53:22.816Z,5.70
2022-12-01T02:55:25.146Z,5.70
2022-12-01T02:57:30.074Z,5.70
2022-12-01T02:59:32.536Z,5.70
2022-12-01T03:01:55.794Z,5.70
2022-12-01T03:04:12.148Z,5.50
2022-12-01T03:06:26.945Z,5.70
2022-12-01T03:08:33.630Z,5.70
2022-12-01T03:10:47.591Z,5.70
2022-12-01T03:13:01.846Z,6.00
2022-12-01T03:15:10.104Z,5.70
2022-12-01T03:17:17.114Z,5.70
2022-12-01T03:19:29.999Z,5.60
2022-12-01T03:21:36.333Z,5.70
2022-12-01T03:23:42.589Z,5.70
2022-12-01T03:25:48.846Z,5.70
2022-12-01T03:28:20.260Z,5.70
2022-12-01T03:30:19.155Z,5.70
2022-12-01T03:32:27.521Z,5.70
2022-12-01T03:34:38.309Z,5.70
2022-12-01T03:36:45.508Z,5.70
2022-12-01T03:38:55.996Z,5.70
2022-12-01T03:41:02.124Z,5.70
2022-12-01T03:43:13.640Z,5.70
2022-12-01T03:45:26.708Z,5.70
2022-12-01T03:47:32.511Z,5.70
2022-12-01T03:49:39.433Z,5.70
2022-12-01T03:51:49.433Z,5.70
2022-12-01T03:53:58.188Z,5.70
2022-12-01T03:56:06.627Z,5.70
2022-12-01T03:58:13.291Z,5.70
2022-12-01T04:00:17.133Z,5.70
2022-12-01T04:02:19.720Z,5.70
2022-12-01T04:04:22.100Z,5.70
2022-12-01T04:06:29.361Z,5.70
2022-12-01T04:08:37.338Z,5.70
2022-12-01T04:10:39.754Z,5.70
2022-12-01T04:12:42.098Z,5.70
2022-12-01T04:14:44.468Z,5.70
2022-12-01T04:16:46.839Z,5.70
2022-12-01T04:18:49.291Z,5.70
2022-12-01T04:20:51.754Z,5.70
2022-12-01T04:22:56.722Z,5.70
2022-12-01T04:24:59.190Z,5.70
2022-12-01T04:27:01.642Z,6.50
2022-12-01T04:29:05.559Z,5.80
2022-12-01T04:31:07.840Z,5.70
2022-12-01T04:33:10.265Z,5.70
2022-12-01T04:35:13.296Z,5.70
2022-12-01T04:37:16.786Z,5.70
2022-12-01T04:39:21.924Z,5.70
2022-12-01T04:41:24.326Z,5.70
2022-12-01T04:43:26.732Z,5.70
2022-12-01T04:45:29.127Z,5.70
2022-12-01T04:47:31.571Z,5.70
2022-12-01T04:49:35.333Z,5.70
2022-12-01T04:51:38.518Z,6.10
2022-12-01T04:53:40.889Z,5.90
2022-12-01T04:55:45.921Z,5.70
2022-12-01T04:57:48.541Z,5.70
2022-12-01T04:59:52.538Z,5.70
2022-12-01T05:01:55.151Z,5.70
2022-12-01T05:03:57.696Z,5.70
2022-12-01T05:06:03.210Z,5.70
2022-12-01T05:08:05.818Z,5.70
2022-12-01T05:10:16.368Z,5.60
2022-12-01T05:12:21.695Z,5.70
2022-12-01T05:14:24.102Z,5.60
2022-12-01T05:16:28.480Z,5.60
2022-12-01T05:18:31.007Z,5.60
2022-12-01T05:20:52.010Z,5.60
2022-12-01T05:23:05.258Z,5.50
2022-12-01T05:25:08.973Z,5.50
2022-12-01T05:27:11.362Z,5.50
2022-12-01T05:29:16.423Z,5.40
2022-12-01T05:31:18.878Z,5.40
2022-12-01T05:33:21.917Z,5.30
2022-12-01T05:35:24.438Z,5.30
2022-12-01T05:37:26.973Z,5.60
2022-12-01T05:39:29.400Z,5.20
2022-12-01T05:41:31.821Z,5.10
2022-12-01T05:43:34.219Z,5.10
2022-12-01T05:45:39.287Z,5.10
2022-12-01T05:47:41.719Z,5.00
2022-12-01T05:49:44.246Z,4.90
2022-12-01T05:51:47.411Z,4.90
2022-12-01T05:53:49.899Z,4.90
2022-12-01T05:55:53.559Z,4.80
2022-12-01T05:57:56.071Z,5.50
2022-12-01T05:59:58.835Z,4.60
2022-12-01T06:02:04.055Z,4.50
2022-12-01T06:04:06.543Z,4.50
2022-12-01T06:06:09.255Z,4.50
2022-12-01T06:08:11.719Z,4.50
2022-12-01T06:10:14.543Z,4.40
2022-12-01T06:12:17.266Z,4.40
2022-12-01T06:14:19.720Z,5.30
2022-12-01T06:16:22.173Z,4.40
2022-12-01T06:18:29.819Z,4.40
2022-12-01T06:20:32.973Z,4.40
2022-12-01T06:22:35.508Z,3.80
2022-12-01T06:24:40.283Z,4.40
2022-12-01T06:26:42.621Z,4.50
2022-12-01T06:28:45.124Z,4.50
2022-12-01T06:30:47.532Z,4.50
2022-12-01T06:32:49.964Z,4.50
2022-12-01T06:34:54.974Z,4.50
2022-12-01T06:36:57.353Z,4.50
2022-12-01T06:38:59.679Z,4.50
2022-12-01T06:41:02.078Z,4.60
2022-12-01T06:43:04.528Z,4.60
2022-12-01T06:45:07.947Z,4.60
2022-12-01T06:47:10.513Z,4.70
2022-12-01T06:49:13.662Z,4.70
2022-12-01T06:51:19.057Z,4.70
2022-12-01T06:53:22.284Z,4.40
2022-12-01T06:55:25.539Z,4.70
2022-12-01T06:57:28.478Z,4.80
2022-12-01T06:59:30.923Z,4.70
2022-12-01T07:01:36.508Z,5.50
2022-12-01T07:03:39.302Z,4.80
2022-12-01T07:05:42.033Z,4.50
2022-12-01T07:07:47.377Z,4.70
2022-12-01T07:09:50.131Z,5.20
2022-12-01T07:11:53.300Z,4.70
2022-12-01T07:14:05.018Z,6.00
2022-12-01T07:16:09.758Z,4.50
2022-12-01T07:18:15.164Z,4.70
2022-12-01T07:20:17.674Z,4.40
2022-12-01T07:22:20.104Z,4.40
2022-12-01T07:24:25.223Z,4.40
2022-12-01T07:26:27.688Z,4.30
2022-12-01T07:28:30.375Z,4.80
2022-12-01T07:30:32.826Z,4.20
2022-12-01T07:32:35.288Z,4.10
2022-12-01T07:34:40.544Z,4.10
2022-12-01T07:36:43.021Z,4.10
2022-12-01T07:38:45.458Z,5.20
2022-12-01T07:40:50.505Z,4.00
2022-12-01T07:42:54.549Z,4.00
2022-12-01T07:44:58.294Z,3.80
2022-12-01T07:47:03.348Z,3.80
2022-12-01T07:49:07.707Z,3.70
2022-12-01T07:51:10.886Z,5.30
2022-12-01T07:53:14.277Z,4.70
2022-12-01T07:55:17.636Z,3.70
2022-12-01T07:57:25.899Z,3.90
2022-12-01T07:59:28.262Z,5.20
2022-12-01T08:01:30.772Z,3.70
2022-12-01T08:03:33.447Z,3.70
2022-12-01T08:05:36.129Z,5.20
2022-12-01T08:07:38.659Z,3.80
2022-12-01T08:09:41.122Z,4.50
2022-12-01T08:11:43.597Z,5.10
2022-12-01T08:13:51.278Z,3.70
2022-12-01T08:15:53.679Z,4.20
2022-12-01T08:17:56.191Z,3.80
2022-12-01T08:19:58.654Z,3.60
2022-12-01T08:22:01.152Z,3.80
2022-12-01T08:24:08.386Z,3.80
2022-12-01T08:26:13.201Z,3.90
2022-12-01T08:28:15.780Z,5.00
2022-12-01T08:30:20.907Z,3.70
2022-12-01T08:32:26.252Z,3.80
2022-12-01T08:34:28.940Z,3.80
2022-12-01T08:36:31.434Z,3.80
2022-12-01T08:38:34.166Z,3.70
2022-12-01T08:40:36.611Z,3.70
2022-12-01T08:42:39.109Z,4.40
2022-12-01T08:44:41.655Z,3.80
2022-12-01T08:46:46.819Z,4.30
2022-12-01T08:48:49.493Z,3.30
2022-12-01T08:50:52.189Z,3.60
2022-12-01T08:52:55.157Z,3.90
2022-12-01T08:54:57.760Z,4.00
2022-12-01T08:57:01.045Z,3.90
2022-12-01T08:59:04.372Z,5.20
2022-12-01T09:01:10.869Z,3.80
2022-12-01T09:03:15.990Z,4.20
2022-12-01T09:05:18.434Z,5.10
2022-12-01T09:07:26.035Z,4.40
2022-12-01T09:09:29.555Z,4.50
2022-12-01T09:11:31.994Z,4.50
2022-12-01T09:13:36.825Z,4.60
2022-12-01T09:15:39.295Z,4.60
2022-12-01T09:17:44.481Z,4.70
2022-12-01T09:19:52.404Z,4.40
2022-12-01T09:21:55.450Z,5.00
2022-12-01T09:23:58.577Z,4.90
2022-12-01T09:26:01.144Z,5.30
2022-12-01T09:28:03.825Z,4.20
2022-12-01T09:30:07.894Z,5.10
2022-12-01T09:32:10.405Z,5.20
2022-12-01T09:34:14.832Z,5.30
2022-12-01T09:36:19.870Z,6.60
2022-12-01T09:38:22.436Z,5.40
2022-12-01T09:40:30.175Z,5.50
2022-12-01T09:42:35.510Z,5.60
2022-12-01T09:44:44.323Z,5.60
2022-12-01T09:46:50.810Z,5.70
2022-12-01T09:48:57.313Z,5.70
2022-12-01T09:51:00.126Z,5.70
2022-12-01T09:53:09.148Z,6.90
2022-12-01T09:55:14.446Z,5.80
2022-12-01T09:57:27.111Z,5.80
2022-12-01T09:59:34.203Z,5.20
2022-12-01T10:01:39.115Z,5.90
2022-12-01T10:03:48.499Z,6.00
2022-12-01T10:06:26.871Z,6.00
2022-12-01T10:08:27.122Z,6.00
2022-12-01T10:10:34.453Z,6.10
2022-12-01T10:12:37.097Z,7.20
2022-12-01T10:14:40.324Z,6.00
2022-12-01T10:16:51.959Z,7.50
2022-12-01T10:19:00.956Z,6.30
2022-12-01T10:21:10.976Z,6.80
2022-12-01T10:23:33.716Z,6.30
2022-12-01T10:25:46.242Z,6.30
2022-12-01T10:28:06.856Z,5.60
2022-12-01T10:30:13.401Z,6.30
2022-12-01T10:32:19.876Z,6.40
2022-12-01T10:34:27.542Z,6.00
2022-12-01T10:36:32.288Z,6.50
2022-12-01T10:38:39.371Z,5.90
2022-12-01T10:40:43.064Z,6.60
2022-12-01T10:42:48.036Z,7.30
2022-12-01T10:44:51.604Z,6.60
2022-12-01T10:46:56.400Z,7.40
2022-12-01T10:49:03.024Z,7.80
2022-12-01T10:51:17.280Z,6.60
2022-12-01T10:53:39.857Z,6.60
2022-12-01T10:55:47.753Z,6.50
2022-12-01T10:57:52.470Z,6.50
2022-12-01T10:59:57.818Z,6.40
2022-12-01T11:02:02.414Z,5.50
2022-12-01T11:04:10.956Z,6.40
2022-12-01T11:06:13.592Z,6.30
2022-12-01T11:08:23.957Z,6.30
2022-12-01T11:10:30.776Z,5.60
2022-12-01T11:12:36.203Z,6.20
2022-12-01T11:14:45.044Z,6.50
2022-12-01T11:16:49.022Z,5.30
2022-12-01T11:19:09.386Z,6.40
2022-12-01T11:21:16.064Z,6.50
2022-12-01T11:23:26.708Z,6.50
2022-12-01T11:25:32.100Z,6.30
2022-12-01T11:27:36.413Z,6.60
2022-12-01T11:29:42.750Z,6.60
2022-12-01T11:31:51.613Z,6.00
2022-12-01T11:33:56.402Z,6.60
2022-12-01T11:35:59.337Z,6.50
2022-12-01T11:38:28.805Z,5.70
2022-12-01T11:40:30.524Z,6.90
2022-12-01T11:42:37.101Z,6.50
2022-12-01T11:44:53.528Z,6.50
2022-12-01T11:47:21.235Z,6.40
2022-12-01T11:49:20.556Z,6.60
2022-12-01T11:51:29.958Z,6.60
2022-12-01T11:53:34.639Z,6.60
2022-12-01T11:55:37.282Z,6.70
2022-12-01T11:57:44.607Z,6.70
2022-12-01T11:59:48.432Z,5.80
2022-12-01T12:02:06.566Z,6.90
2022-12-01T12:04:21.959Z,7.20
2022-12-01T12:06:39.990Z,6.90
2022-12-01T12:09:01.389Z,7.00
2022-12-01T12:11:10.566Z,7.10
2022-12-01T12:13:41.208Z,7.20
2022-12-01T12:15:54.567Z,7.30
2022-12-01T12:18:15.920Z,7.30
2022-12-01T12:20:38.093Z,7.40
2022-12-01T12:22:55.181Z,7.30
2022-12-01T12:25:11.641Z,7.30
2022-12-01T12:27:24.334Z,7.30
2022-12-01T12:29:41.285Z,7.30
2022-12-01T12:31:54.359Z,8.10
2022-12-01T12:34:22.913Z,7.30
2022-12-01T12:36:35.223Z,7.30
2022-12-01T12:38:52.237Z,7.20
2022-12-01T12:41:00.731Z,8.40
2022-12-01T12:43:25.542Z,7.20
2022-12-01T12:45:39.356Z,7.20
2022-12-01T12:47:58.330Z,7.20
2022-12-01T12:50:12.654Z,7.10
2022-12-01T12:52:18.127Z,7.10
2022-12-01T12:54:25.578Z,7.10
2022-12-01T12:56:31.123Z,7.00
2022-12-01T12:58:36.836Z,7.00
2022-12-01T13:00:48.547Z,6.90
2022-12-01T13:02:55.823Z,6.90
2022-12-01T13:05:03.382Z,6.80
2022-12-01T13:07:25.861Z,6.80
2022-12-01T13:09:35.340Z,6.70
2022-12-01T13:11:49.361Z,6.70
2022-12-01T13:14:01.942Z,6.50
2022-12-01T13:16:13.484Z,6.70
2022-12-01T13:18:25.419Z,6.60
2022-12-01T13:20:32.264Z,6.60
2022-12-01T13:22:36.019Z,6.60
2022-12-01T13:24:38.679Z,6.60
2022-12-01T13:26:44.005Z,6.60
2022-12-01T13:28:50.982Z,7.10
2022-12-01T13:31:02.032Z,6.60
2022-12-01T13:33:07.800Z,6.60
2022-12-01T13:35:25.415Z,6.60
2022-12-01T13:37:29.962Z,6.60
2022-12-01T13:39:37.235Z,6.40
2022-12-01T13:41:41.066Z,6.60
2022-12-01T13:44:03.736Z,6.60
2022-12-01T13:46:19.189Z,6.60
2022-12-01T13:48:51.068Z,7.30
2022-12-01T13:51:00.089Z,6.50
2022-12-01T13:53:12.712Z,6.50
2022-12-01T13:55:26.047Z,6.50
2022-12-01T13:57:33.478Z,6.50
2022-12-01T13:59:42.016Z,6.50
2022-12-01T14:01:47.291Z,6.40
2022-12-01T14:03:56.961Z,6.40
2022-12-01T14:06:08.985Z,6.40
2022-12-01T14:08:21.287Z,6.40
2022-12-01T14:10:31.132Z,6.40
2022-12-01T14:12:37.851Z,6.40
2022-12-01T14:14:47.041Z,6.40
2022-12-01T14:16:52.010Z,6.30
2022-12-01T14:19:03.354Z,6.30
2022-12-01T14:21:07.864Z,6.30
2022-12-01T14:23:21.507Z,6.30
2022-12-01T14:25:27.277Z,6.30
2022-12-01T14:27:41.082Z,6.30
2022-12-01T14:29:44.107Z,6.30
2022-12-01T14:32:24.463Z,6.20
2022-12-01T14:34:34.319Z,6.20
2022-12-01T14:36:49.687Z,6.20
2022-12-01T14:38:59.214Z,6.20
2022-12-01T14:41:18.221Z,6.10
2022-12-01T14:43:47.202Z,5.90
2022-12-01T14:46:01.620Z,6.10
2022-12-01T14:48:08.087Z,7.20
2022-12-01T14:50:20.948Z,6.10
2022-12-01T14:52:34.832Z,6.10
2022-12-01T14:54:43.351Z,6.30
2022-12-01T14:56:50.011Z,6.00
2022-12-01T14:58:55.172Z,6.00
2022-12-01T15:01:03.542Z,6.00
2022-12-01T15:03:14.294Z,6.00
2022-12-01T15:05:23.902Z,5.90
2022-12-01T15:07:26.471Z,5.90
2022-12-01T15:09:34.065Z,5.90
2022-12-01T15:11:39.696Z,5.80
2022-12-01T15:13:48.693Z,5.90
2022-12-01T15:15:52.533Z,5.80
2022-12-01T15:17:57.805Z,5.80
2022-12-01T15:20:01.145Z,6.00
2022-12-01T15:22:18.157Z,5.80
2022-12-01T15:24:23.130Z,5.80
2022-12-01T15:29:16.214Z,5.80
2022-12-01T15:31:18.784Z,5.70
2022-12-01T15:34:09.523Z,6.60
2022-12-01T15:36:13.530Z,5.80
2022-12-01T15:38:23.816Z,6.40
2022-12-01T15:43:02.160Z,5.70
2022-12-01T15:45:18.025Z,5.60
2022-12-01T15:47:36.022Z,5.60
2022-12-01T15:49:49.042Z,5.60
2022-12-01T15:51:52.694Z,5.60
2022-12-01T15:53:59.820Z,5.60
2022-12-01T15:56:15.257Z,5.60
2022-12-01T15:58:25.142Z,5.50
2022-12-01T16:00:28.108Z,5.50
2022-12-01T16:02:33.625Z,5.50
2022-12-01T16:04:37.357Z,5.60
2022-12-01T16:06:40.599Z,5.50
2022-12-01T16:08:53.949Z,5.50
2022-12-01T16:11:16.636Z,5.50
2022-12-01T16:13:43.451Z,5.50
2022-12-01T16:15:45.788Z,5.50
2022-12-01T16:17:49.994Z,5.50
2022-12-01T16:20:17.989Z,5.50
2022-12-01T16:22:22.761Z,5.40
2022-12-01T16:24:29.480Z,5.50
2022-12-01T16:26:34.734Z,5.50
2022-12-01T16:28:37.243Z,5.40
2022-12-01T16:30:40.165Z,5.40
2022-12-01T16:32:44.117Z,5.40
2022-12-01T16:34:47.379Z,5.40
2022-12-01T16:36:50.166Z,5.40
2022-12-01T16:38:52.459Z,5.40
2022-12-01T16:40:56.842Z,5.50
2022-12-01T16:43:07.317Z,5.50
2022-12-01T16:45:14.948Z,6.80
2022-12-01T16:47:19.323Z,5.40
2022-12-01T16:49:21.591Z,5.50
2022-12-01T16:51:29.889Z,5.00
2022-12-01T16:53:49.606Z,5.50
2022-12-01T16:55:55.118Z,5.60
2022-12-01T16:57:58.169Z,5.40
2022-12-01T17:00:03.907Z,5.50
2022-12-01T17:02:10.921Z,5.40
2022-12-01T17:04:13.029Z,5.40
2022-12-01T17:06:18.218Z,6.10
2022-12-01T17:08:21.724Z,5.40
2022-12-01T17:10:24.766Z,5.40
2022-12-01T17:12:27.254Z,5.50
2022-12-01T17:14:32.686Z,5.40
2022-12-01T17:16:38.116Z,5.50
2022-12-01T17:18:40.744Z,5.40
2022-12-01T17:20:43.569Z,5.40
2022-12-01T17:22:46.036Z,5.40
2022-12-01T17:24:48.765Z,5.50
2022-12-01T17:26:51.490Z,5.40
2022-12-01T17:28:55.127Z,5.50
2022-12-01T17:31:00.302Z,5.40
2022-12-01T17:33:05.374Z,5.40
2022-12-01T17:35:08.989Z,5.40
2022-12-01T17:37:14.854Z,5.40
2022-12-01T17:39:20.097Z,5.40
2022-12-01T17:41:24.765Z,5.40
2022-12-01T17:43:27.366Z,5.30
2022-12-01T17:45:29.925Z,5.30
2022-12-01T17:47:32.293Z,5.30
2022-12-01T17:49:38.770Z,5.30
2022-12-01T17:51:43.943Z,5.30
2022-12-01T17:53:46.518Z,5.30
2022-12-01T17:55:49.009Z,5.30
2022-12-01T17:57:51.450Z,5.20
2022-12-01T17:59:53.997Z,5.20
2022-12-01T18:01:56.463Z,5.20
2022-12-01T18:03:59.223Z,5.20
2022-12-01T18:06:04.731Z,5.20
2022-12-01T18:08:08.161Z,4.70
2022-12-01T18:10:10.937Z,5.20
2022-12-01T18:12:13.192Z,5.20
2022-12-01T18:14:18.051Z,5.20
2022-12-01T18:16:22.778Z,5.20
2022-12-01T18:18:25.139Z,5.10
2022-12-01T18:20:27.401Z,5.10
2022-12-01T18:22:32.306Z,5.10
2022-12-01T18:24:34.660Z,5.10
2022-12-01T18:26:40.023Z,5.10
2022-12-01T18:28:42.467Z,5.00
2022-12-01T18:30:45.080Z,5.00
2022-12-01T18:32:47.715Z,5.00
2022-12-01T18:34:50.380Z,5.00
2022-12-01T18:36:52.930Z,5.00
2022-12-01T18:38:59.640Z,5.00
2022-12-01T18:41:03.062Z,5.00
2022-12-01T18:43:05.607Z,4.90
2022-12-01T18:45:12.182Z,5.00
2022-12-01T18:47:16.911Z,5.00
2022-12-01T18:49:19.754Z,5.00
2022-12-01T18:51:22.488Z,5.00
2022-12-01T18:53:24.914Z,5.00
2022-12-01T18:55:29.957Z,4.90
2022-12-01T18:57:32.371Z,4.80
2022-12-01T18:59:34.955Z,4.90
2022-12-01T19:01:40.407Z,4.90
2022-12-01T19:03:42.829Z,4.90
2022-12-01T19:05:45.264Z,4.90
2022-12-01T19:07:48.004Z,6.20
2022-12-01T19:09:51.383Z,4.90
2022-12-01T19:12:00.031Z,4.90
2022-12-01T19:14:03.647Z,5.70
2022-12-01T19:16:07.491Z,4.90
2022-12-01T19:18:09.876Z,4.80
2022-12-01T19:20:13.179Z,4.80
2022-12-01T19:22:15.470Z,4.80
2022-12-01T19:24:17.837Z,4.80
2022-12-01T19:26:22.420Z,4.80
2022-12-01T19:28:28.999Z,4.80
2022-12-01T19:30:31.479Z,4.80
2022-12-01T19:32:34.492Z,4.80
2022-12-01T19:34:36.966Z,4.80
2022-12-01T19:36:39.525Z,4.70
2022-12-01T19:38:42.456Z,4.80
2022-12-01T19:40:44.983Z,4.80
2022-12-01T19:42:47.710Z,4.70
2022-12-01T19:44:53.305Z,4.70
2022-12-01T19:46:56.829Z,4.70
2022-12-01T19:49:01.107Z,4.70
2022-12-01T19:51:03.575Z,4.70
2022-12-01T19:53:05.999Z,4.70
2022-12-01T19:55:09.229Z,4.70
2022-12-01T19:57:11.640Z,4.70
2022-12-01T19:59:15.064Z,4.70
2022-12-01T20:01:20.795Z,4.70
2022-12-01T20:03:23.244Z,4.60
2022-12-01T20:05:25.600Z,4.70
2022-12-01T20:07:28.569Z,5.60
2022-12-01T20:09:30.931Z,4.60
2022-12-01T20:11:35.425Z,4.60
2022-12-01T20:13:38.985Z,4.60
2022-12-01T20:15:41.308Z,4.60
2022-12-01T20:17:46.805Z,4.60
2022-12-01T20:19:49.115Z,4.50
2022-12-01T20:21:51.693Z,4.60
2022-12-01T20:23:59.716Z,4.60
2022-12-01T20:26:04.015Z,5.10
2022-12-01T20:28:06.394Z,4.50
2022-12-01T20:30:10.401Z,4.50
2022-12-01T20:32:13.466Z,4.50
2022-12-01T20:34:21.125Z,4.50
2022-12-01T20:36:23.936Z,4.50
2022-12-01T20:38:27.851Z,4.50
2022-12-01T20:40:30.287Z,4.50
2022-12-01T20:42:32.928Z,4.50
2022-12-01T20:44:35.450Z,4.50
2022-12-01T20:46:41.103Z,4.50
2022-12-01T20:48:45.744Z,4.50
2022-12-01T20:50:50.862Z,4.50
2022-12-01T20:52:53.260Z,4.40
2022-12-01T20:54:55.736Z,4.70
2022-12-01T20:56:58.619Z,4.50
2022-12-01T20:59:01.242Z,4.40
2022-12-01T21:01:08.541Z,3.70
2022-12-01T21:03:11.374Z,4.40
2022-12-01T21:05:14.750Z,4.40
2022-12-01T21:07:19.648Z,4.40
2022-12-01T21:09:21.892Z,4.40
2022-12-01T21:11:44.794Z,4.40
2022-12-01T21:13:47.924Z,4.40
2022-12-01T21:15:57.306Z,4.40
2022-12-01T21:18:08.764Z,5.00
2022-12-01T21:20:21.717Z,4.40
2022-12-01T21:22:27.973Z,4.40
2022-12-01T21:24:35.761Z,4.30
2022-12-01T21:26:42.866Z,4.50
2022-12-01T21:28:48.026Z,4.30
2022-12-01T21:30:53.896Z,4.40
2022-12-01T21:33:10.182Z,4.40
2022-12-01T21:35:18.848Z,4.40
2022-12-01T21:37:23.276Z,4.40
2022-12-01T21:39:29.951Z,4.30
2022-12-01T21:41:35.311Z,4.30
2022-12-01T21:43:38.610Z,4.30
2022-12-01T21:45:41.266Z,4.30
2022-12-01T21:47:43.742Z,4.30
2022-12-01T21:49:47.754Z,4.30
2022-12-01T21:51:52.484Z,4.20
2022-12-01T21:53:56.726Z,4.20
2022-12-01T21:56:02.141Z,4.20
2022-12-01T21:58:23.517Z,4.20
2022-12-01T22:00:28.873Z,4.20
2022-12-01T22:02:43.712Z,4.10
2022-12-01T22:04:46.706Z,4.60
2022-12-01T22:06:51.960Z,5.30
2022-12-01T22:08:56.188Z,4.10
2022-12-01T22:11:07.375Z,5.60
2022-12-01T22:13:10.968Z,4.30
2022-12-01T22:15:24.785Z,4.00
2022-12-01T22:17:28.321Z,4.00
2022-12-01T22:19:32.185Z,4.00
2022-12-01T22:21:40.097Z,3.90
2022-12-01T22:23:42.504Z,3.90
2022-12-01T22:25:47.451Z,4.00
2022-12-01T22:27:52.609Z,3.90
2022-12-01T22:29:58.388Z,3.80
2022-12-01T22:32:22.025Z,3.80
2022-12-01T22:34:24.288Z,3.80
2022-12-01T22:36:30.201Z,3.70
2022-12-01T22:38:35.681Z,3.70
2022-12-01T22:40:45.630Z,3.70
2022-12-01T22:42:48.035Z,3.70
2022-12-01T22:44:53.163Z,3.70
2022-12-01T22:47:00.553Z,3.70
2022-12-01T22:49:13.939Z,3.70
2022-12-01T22:51:23.401Z,3.70
2022-12-01T22:53:29.605Z,3.70
2022-12-01T22:55:32.024Z,4.40
2022-12-01T22:57:36.642Z,3.70
2022-12-01T22:59:42.047Z,3.70
2022-12-01T23:01:53.755Z,4.00
2022-12-01T23:04:14.766Z,3.60
2022-12-01T23:06:44.614Z,3.60
2022-12-01T23:08:47.010Z,3.60
2022-12-01T23:10:49.737Z,3.60
2022-12-01T23:12:53.683Z,3.60
2022-12-01T23:14:58.641Z,3.60
2022-12-01T23:17:13.535Z,3.60
2022-12-01T23:19:16.506Z,3.50
2022-12-01T23:21:18.930Z,3.50
2022-12-01T23:23:26.065Z,3.50
2022-12-01T23:25:28.851Z,3.50
2022-12-01T23:27:31.423Z,3.50
2022-12-01T23:29:34.647Z,3.40
2022-12-01T23:31:37.122Z,3.40
2022-12-01T23:33:42.164Z,3.50
2022-12-01T23:35:51.510Z,3.40
2022-12-01T23:37:54.501Z,3.40
2022-12-01T23:39:57.370Z,3.40
2022-12-01T23:42:00.316Z,3.40
2022-12-01T23:44:11.525Z,3.40
2022-12-01T23:46:16.941Z,3.40
2022-12-01T23:48:22.417Z,3.40
2022-12-01T23:50:30.248Z,3.40
2022-12-01T23:52:36.145Z,3.40
2022-12-01T23:54:39.028Z,3.40
2022-12-01T23:56:41.789Z,3.40
2022-12-01T23:58:44.764Z,3.40
